Terminal Aerodrome Forecast
Issued by NWS

Home | Current Version | Previous Version | Text Only | Print | Product List | Glossary On
Versions: 1 2 3 4 5 6 7 8 9 10 11 12 13 14 15 16 17 18 19 20 21 22 23 24 25 26 27 28 29 30 31 32 33 34 35 36 37 38
000
FTUS41 KOKX 242139 AAC
TAFGON
TAF AMD
KGON 242139Z 2422/2518 12011KT P6SM FEW030 SCT080
     FM250200 08006KT P6SM FEW030 BKN250
     FM250800 07011KT P6SM BKN025
     FM251100 07012G20KT 6SM -RA BR SCT006 BKN012
     FM251300 07015G22KT 2SM -RA BR OVC005=

USA.gov is the U.S. government's official web portal to all federal, state and local government web resources and services.